Data for 07/09/2015

Time Sea-Level Adjusted Pressure Absolute Pressure Temperature Relative Humidity Dew Point   
(mb) (inHg) (mb) (inHg) (C) (F) (%) (C) (F)
00:05 1017 30.03 846 24.98 17.3 63.1 51 7.1 44.7
00:10 1017 30.03 846 24.98 17.1 62.8 52 7.2 45
00:15 1017 30.03 846 24.98 16.9 62.5 52 7.2 45
00:20 1017 30.03 846 24.98 16.8 62.3 53 7.2 44.9
00:25 1017 30.03 846 24.98 16.8 62.2 52 7.1 44.8
00:30 1017 30.03 846 24.98 16.8 62.2 53 7.2 44.9
00:35 1017 30.03 846 24.98 16.7 62 53 7.2 45
00:40 1017 30.03 846 24.98 16.5 61.7 54 7.4 45.3
00:45 1017 30.03 846 24.98 16.2 61.2 55 7.3 45.1
00:50 1017 30.03 846 24.98 16.1 61 56 7.3 45.2
00:55 1017 30.03 846 24.98 16 60.7 56 7.3 45.2
01:00 1017 30.03 846 24.98 15.8 60.5 57 7.4 45.4
01:05 1017 30.03 846 24.98 15.7 60.2 57 7.2 45
01:10 1017 30.03 846 24.98 15.7 60.3 57 7.3 45.1
01:15 1017 30.03 846 24.98 15.6 60.1 58 7.5 45.6
01:20 1017 30.03 846 24.98 15.3 59.5 59 7.5 45.4
01:25 1017 30.03 846 24.98 15.1 59.2 59 7.3 45.1
01:30 1017 30.03 846 24.98 15.1 59.2 59 7.3 45.2
01:35 1017 30.03 846 24.98 15.1 59.2 59 7.3 45.1
01:40 1017 30.03 846 24.98 15 58.9 60 7.3 45.2
01:45 1017 30.03 846 24.98 14.8 58.7 61 7.3 45.2
01:50 1017 30.03 846 24.98 14.5 58.1 61 7.2 44.9
01:55 1017 30.03 846 24.98 14.4 58 61 7.1 44.8
02:00 1017 30.03 846 24.98 14.2 57.5 63 7.2 45
02:05 1017 30.03 846 24.98 14 57.2 62 7 44.5
02:10 1017 30.03 846 24.98 13.8 56.8 63 6.9 44.4
02:15 1017 30.03 846 24.98 13.8 56.8 62 6.7 44.1
02:20 1017 30.03 846 24.98 13.7 56.7 62 6.6 43.9
02:25 1017 30.03 846 24.98 13.6 56.5 62 6.6 43.8
02:30 1017 30.03 846 24.98 13.6 56.4 62 6.6 43.8
02:35 1017 30.03 846 24.98 13.5 56.4 62 6.5 43.6
02:40 1017 30.03 846 24.98 13.7 56.7 61 6.5 43.7
02:45 1017 30.03 846 24.98 13.7 56.7 61 6.5 43.6
02:50 1017 30.03 846 24.98 13.7 56.6 62 6.5 43.7
02:55 1017 30.03 846 24.98 13.6 56.5 62 6.4 43.6
03:00 1017 30.03 846 24.98 13.6 56.4 62 6.6 43.9
03:05 1017 30.03 846 24.98 13.3 55.9 63 6.5 43.8
03:10 1017 30.03 846 24.98 13.2 55.7 63 6.4 43.4
03:15 1017 30.03 846 24.98 13.1 55.5 63 6.2 43.1
03:20 1017 30.03 846 24.98 13.3 56 62 6.2 43.1
03:25 1017 30.03 846 24.98 13.5 56.2 61 6.2 43.2
03:30 1017 30.03 846 24.98 13.5 56.3 62 6.3 43.4
03:35 1017 30.03 846 24.98 13.6 56.4 60 6.1 43
03:40 1017 30.03 846 24.98 13.6 56.5 61 6.3 43.4
03:45 1017 30.03 846 24.98 13.3 56 61 6 42.8
03:50 1017 30.03 846 24.98 13.4 56.1 60 5.9 42.6
03:55 1017 30.03 846 24.98 13.6 56.5 59 5.9 42.5
04:00 1017 30.03 846 24.98 13.7 56.6 60 6 42.8
04:05 1017 30.03 846 24.98 13.5 56.3 60 5.9 42.7
04:10 1017 30.03 846 24.98 13.4 56.2 60 5.8 42.5
04:15 1017 30.03 846 24.98 13.4 56.1 60 5.9 42.7
04:20 1017 30.03 846 24.98 13.3 55.9 60 5.8 42.4
04:25 1017 30.03 846 24.98 13.1 55.6 61 5.7 42.3
04:30 1017 30.03 846 24.98 12.9 55.1 61 5.6 42.1
04:35 1017 30.03 846 24.98 12.9 55.2 62 5.8 42.4
04:40 1017 30.03 846 24.98 12.8 55 62 5.7 42.3
04:45 1017 30.03 846 24.98 12.8 55.1 61 5.6 42.1
04:50 1017 30.03 846 24.98 12.7 54.8 63 5.9 42.6
04:55 1017 30.03 846 24.98 12.3 54.2 63 5.5 42
05:00 1017 30.03 846 24.98 12.3 54.1 63 5.5 41.9
05:05 1017 30.03 846 24.98 12.4 54.3 63 5.7 42.3
05:10 1017 30.03 846 24.98 12.3 54.1 64 5.8 42.4
05:15 1017 30.03 846 24.98 12.1 53.8 65 5.8 42.5
05:20 1017 30.03 846 24.98 12 53.5 64 5.4 41.7
05:25 1017 30.03 846 24.98 12.7 54.8 61 5.3 41.6
05:30 1017 30.03 846 24.98 13 55.5 62 5.9 42.7
05:35 1017 30.03 846 24.98 12.8 55.1 63 6 42.7
05:40 1017 30.03 846 24.98 12.7 54.9 63 6 42.8
05:45 1017 30.03 846 24.98 12.8 55.1 64 6.1 43
05:50 1017 30.03 846 24.98 12.9 55.1 63 6 42.9
05:55 1017 30.03 846 24.98 13.1 55.5 63 6.1 43.1
06:00 1017 30.03 846 24.98 13.3 56 62 6.2 43.1
06:05 1017 30.03 846 24.98 13.6 56.5 61 6.2 43.2
06:10 1017 30.03 846 24.98 13.8 56.9 60 6.2 43.2
06:15 1017 30.03 846 24.98 14.1 57.3 59 6.3 43.4
06:20 1017 30.03 846 24.98 14.5 58 57 6.1 42.9
06:25 1017 30.03 847 25.01 14.8 58.6 58 6.6 44
06:30 1017 30.03 847 25.01 14.9 58.8 57 6.5 43.6
06:35 1017 30.03 847 25.01 15.1 59.2 57 6.8 44.3
06:40 1017 30.03 846 24.98 15.2 59.4 55 6.4 43.5
06:45 1017 30.03 846 24.98 15.6 60.2 55 6.8 44.3
06:50 1017 30.03 846 24.98 16 60.8 54 6.9 44.4
06:55 1017 30.03 846 24.98 16.4 61.5 54 7.1 44.8
07:00 1017 30.03 846 24.98 16.7 62 53 7.1 44.9
07:05 1017 30.03 846 24.98 16.9 62.3 52 7 44.7
07:10 1017 30.03 846 24.98 17.2 62.9 52 7.2 45
07:15 1017 30.03 846 24.98 17.5 63.5 49 6.9 44.3
07:20 1017 30.03 846 24.98 17.6 63.7 50 7.1 44.7
07:25 1017 30.03 846 24.98 17.8 64 48 6.9 44.4
07:30 1017 30.03 846 24.98 18 64.5 47 6.7 44.1
07:35 1017 30.03 846 24.98 18.6 65.5 46 6.9 44.5
07:40 1017 30.03 846 24.98 19 66.3 42 6.1 43
07:45 1017 30.03 846 24.98 19.5 67.2 42 6.6 43.8
07:50 1017 30.03 846 24.98 19.4 66.9 41 6 42.8
07:55 1017 30.03 846 24.98 19.7 67.5 42 6.5 43.8
08:00 1017 30.03 846 24.98 19.9 67.8 41 6.4 43.6
08:05 1017 30.03 846 24.98 19.7 67.4 41 6.3 43.3
08:10 1017 30.03 846 24.98 19.9 67.9 41 6.3 43.4
08:15 1017 30.03 846 24.98 19.8 67.7 40 6.1 43.1
08:20 1017 30.03 846 24.98 19.9 67.9 40 6.1 43.1
08:25 1017 30.03 846 24.98 20.2 68.3 38 5.7 42.3
08:30 1017 30.03 846 24.98 20.9 69.6 38 6.3 43.4
08:35 1017 30.03 846 24.98 20.9 69.6 38 6.2 43.1
08:40 1017 30.03 846 24.98 21.3 70.4 37 6.4 43.5
08:45 1017 30.03 846 24.98 21.6 71 38 6.8 44.2
08:50 1017 30.03 846 24.98 21.6 70.8 38 6.7 44
08:55 1017 30.03 846 24.98 21.1 70 41 7.4 45.3
09:00 1017 30.03 846 24.98 21.2 70.1 38 6.5 43.7
09:05 1017 30.03 846 24.98 22.3 72.1 36 6.6 43.9
09:10 1017 30.03 846 24.98 23.1 73.6 34 6.6 43.9
09:15 1017 30.03 846 24.98 23 73.3 36 7.1 44.8
09:20 1017 30.03 846 24.98 22 71.7 36 6.6 43.9
09:25 1017 30.03 846 24.98 22.1 71.7 36 6.4 43.6
09:30 1017 30.03 846 24.98 22.6 72.6 33 5.8 42.4
09:35 1017 30.03 846 24.98 22.9 73.3 34 6.3 43.4
09:40 1017 30.03 846 24.98 23 73.5 34 6.5 43.6
09:45 1017 30.03 846 24.98 22.4 72.4 33 5.5 41.9
09:50 1017 30.03 846 24.98 22.8 73 32 5.6 42
09:55 1017 30.03 846 24.98 23.9 75 30 5.7 42.3
10:00 1017 30.03 846 24.98 24 75.2 32 6.7 44
10:05 1017 30.03 846 24.98 23.2 73.7 33 6.1 43
10:10 1017 30.03 846 24.98 23.5 74.3 31 5.7 42.3
10:15 1017 30.03 846 24.98 24.4 75.8 29 5.4 41.7
10:20 1017 30.03 846 24.98 25.2 77.3 28 5.8 42.4
10:25 1016 30 846 24.98 24.8 76.7 28 5.3 41.6
10:30 1016 30 846 24.98 25.2 77.4 29 6.2 43.1
10:35 1016 30 846 24.98 24.8 76.6 28 5.2 41.3
10:40 1016 30 846 24.98 25.4 77.6 26 5 41
10:45 1016 30 846 24.98 24.8 76.7 27 4.9 40.9
10:50 1016 30 846 24.98 24.8 76.7 25 3.9 39
10:55 1016 30 845 24.95 25 77.1 25 4 39.1
11:00 1016 30 845 24.95 26.1 79 24 4.1 39.4
11:05 1016 30 845 24.95 25.6 78.1 25 4.5 40.1
11:10 1016 30 845 24.95 26.4 79.4 21 2.3 36.1
11:15 1016 30 845 24.95 26.6 79.9 20 2.2 36
11:20 1016 30 845 24.95 26.6 79.8 20 2.4 36.2
11:25 1016 30 845 24.95 26.9 80.4 17 0.4 32.6
11:30 1016 30 845 24.95 27.5 81.6 17 0.3 32.5
11:35 1016 30 845 24.95 27.1 80.8 17 -0.1 31.8
11:40 1016 30 845 24.95 27 80.6 21 2.8 37
11:45 1016 30 845 24.95 26.3 79.4 19 1.4 34.6
11:50 1016 30 845 24.95 26.9 80.5 17 0.5 32.9
11:55 1016 30 845 24.95 27.3 81.1 19 2.2 35.9
12:00 1016 30 845 24.95 28.1 82.6 16 0.6 33
12:05 1016 30 845 24.95 28.3 82.9 14 -1.2 29.8
12:10 1015 29.97 845 24.95 27.6 81.7 14 -1.6 29.1
12:15 1015 29.97 845 24.95 27.5 81.5 14 -1.7 28.9
12:20 1015 29.97 845 24.95 27.5 81.4 12 -3.7 25.3
12:25 1015 29.97 845 24.95 27.1 80.7 14 -2.2 28
12:30 1015 29.97 844 24.92 26.6 79.9 14 -2.7 27.1
12:35 1015 29.97 844 24.92 26.8 80.3 14 -2.6 27.3
12:40 1015 29.97 844 24.92 27.8 82 15 -1.3 29.7
12:45 1015 29.97 844 24.92 28.5 83.4 14 -1.5 29.3
12:50 1015 29.97 844 24.92 28.1 82.5 14 -1.6 29.2
12:55 1015 29.97 844 24.92 27.7 81.8 15 -0.7 30.8
13:00 1015 29.97 844 24.92 28.1 82.6 14 -1.2 29.9
13:05 1015 29.97 844 24.92 28.4 83.1 14 -1.5 29.3
13:10 1015 29.97 844 24.92 28.4 83.1 13 -2.3 27.9
13:15 1015 29.97 844 24.92 28.9 83.9 14 -1.4 29.5
13:20 1015 29.97 844 24.92 29.2 84.6 13 -2.2 28
13:25 1015 29.97 844 24.92 29.5 85.1 12 -2.8 26.9
13:30 1015 29.97 844 24.92 29.3 84.8 12 -2.8 26.9
13:35 1014 29.94 844 24.92 28.4 83.1 12 -3.1 26.5
13:40 1014 29.94 844 24.92 28.5 83.4 12 -2.8 27
13:45 1014 29.94 844 24.92 29.2 84.5 11 -3.5 25.7
13:50 1014 29.94 844 24.92 29 84.3 10 -4.9 23.2
13:55 1014 29.94 843 24.89 29.4 85 11 -4.1 24.6
14:00 1014 29.94 843 24.89 29.1 84.3 11 -4.3 24.3
14:05 1014 29.94 843 24.89 29.2 84.6 11 -3.4 25.9
14:10 1014 29.94 843 24.89 29.4 84.9 13 -2 28.4
14:15 1014 29.94 843 24.89 29 84.1 13 -1.4 29.4
14:20 1014 29.94 843 24.89 28.7 83.7 14 -1.4 29.5
14:25 1014 29.94 843 24.89 29.1 84.4 14 -0.9 30.3
14:30 1014 29.94 843 24.89 29.1 84.4 15 -0.1 31.8
14:35 1014 29.94 843 24.89 29.2 84.6 14 -0.3 31.4
14:40 1014 29.94 843 24.89 29.4 84.8 15 0.6 33.1
14:45 1014 29.94 843 24.89 28.9 84 15 0.3 32.5
14:50 1014 29.94 843 24.89 29.1 84.5 14 -0.4 31.3
14:55 1014 29.94 843 24.89 29.2 84.6 15 0.6 33.1
15:00 1014 29.94 843 24.89 28.8 83.8 16 0.5 32.8
15:05 1014 29.94 843 24.89 28.3 83 17 1.5 34.7
15:10 1014 29.94 843 24.89 28.3 82.9 16 0.7 33.3
15:15 1014 29.94 843 24.89 28.8 83.9 15 -0.4 31.3
15:20 1014 29.94 843 24.89 29.2 84.6 14 -0.5 31
15:25 1014 29.94 843 24.89 29.6 85.3 14 -0.6 30.9
15:30 1014 29.94 843 24.89 29.4 84.9 15 0.2 32.4
15:35 1014 29.94 843 24.89 29.5 85.2 14 0.1 32.1
15:40 1014 29.94 843 24.89 29.8 85.6 14 -0.1 31.9
15:45 1014 29.94 843 24.89 30 86 15 0.7 33.2
15:50 1014 29.94 843 24.89 29.8 85.7 14 0.2 32.3
15:55 1014 29.94 843 24.89 29.9 85.7 14 -0.2 31.7
16:00 1014 29.94 843 24.89 29.7 85.5 15 0.4 32.7
16:05 1014 29.94 843 24.89 29.5 85.1 15 0.7 33.3
16:10 1014 29.94 843 24.89 29.4 85 14 -0.2 31.6
16:15 1014 29.94 843 24.89 29.7 85.5 15 0.7 33.2
16:20 1014 29.94 843 24.89 29.8 85.7 14 0 32
16:25 1014 29.94 843 24.89 30.2 86.3 15 0.9 33.7
16:30 1014 29.94 843 24.89 30.3 86.6 15 0.9 33.6
16:35 1014 29.94 843 24.89 30 86 14 -0.2 31.6
16:40 1014 29.94 843 24.89 30.5 86.9 14 0.5 32.8
16:45 1014 29.94 843 24.89 30.1 86.2 15 1.2 34.2
16:50 1014 29.94 843 24.89 28.8 83.9 22 5.5 41.9
16:55 1014 29.94 843 24.89 26.6 79.8 27 6.3 43.4
17:00 1014 29.94 843 24.89 25.4 77.7 28 5.7 42.3
17:05 1014 29.94 843 24.89 24.9 76.8 29 6.1 42.9
17:10 1014 29.94 843 24.89 24.6 76.4 30 6 42.8
17:15 1014 29.94 843 24.89 24.4 75.9 32 6.8 44.3
17:20 1014 29.94 843 24.89 23.8 74.8 32 6.3 43.4
17:25 1014 29.94 843 24.89 23.5 74.3 33 6.6 43.8
17:30 1014 29.94 843 24.89 23.4 74.1 33 6.5 43.6
17:35 1014 29.94 843 24.89 23.1 73.6 35 6.8 44.3
17:40 1014 29.94 843 24.89 22.7 72.9 35 6.7 44
17:45 1014 29.94 843 24.89 22.5 72.5 36 7 44.6
17:50 1014 29.94 843 24.89 22.1 71.8 38 7.2 44.9
17:55 1014 29.94 843 24.89 21.8 71.2 39 7.5 45.5
18:00 1014 29.94 843 24.89 21.5 70.6 39 7 44.5
18:05 1014 29.94 843 24.89 21.6 70.8 37 6.6 43.9
18:10 1014 29.94 843 24.89 21.7 71.1 36 6.1 43
18:15 1014 29.94 843 24.89 21.9 71.3 35 5.8 42.4
18:20 1014 29.94 843 24.89 21.9 71.4 35 6.1 43
18:25 1014 29.94 843 24.89 21.8 71.2 35 6 42.8
18:30 1014 29.94 843 24.89 21.7 71.1 35 5.9 42.5
18:35 1014 29.94 843 24.89 21.6 70.8 36 5.9 42.6
18:40 1014 29.94 843 24.89 21.6 70.8 35 5.5 41.9
18:45 1014 29.94 843 24.89 21.5 70.7 35 5.7 42.3
18:50 1014 29.94 843 24.89 21.4 70.6 36 5.9 42.7
18:55 1014 29.94 843 24.89 21.4 70.5 36 5.9 42.7
19:00 1014 29.94 843 24.89 21.3 70.3 37 6.2 43.2
19:05 1014 29.94 843 24.89 21.2 70.2 37 6.1 42.9
19:10 1014 29.94 843 24.89 21.2 70.2 37 6.2 43.1
19:15 1014 29.94 843 24.89 21.3 70.3 37 6.1 42.9
19:20 1014 29.94 843 24.89 21.3 70.4 37 6.1 43
19:25 1014 29.94 843 24.89 21.2 70.2 39 6.9 44.3
19:30 1014 29.94 843 24.89 21.2 70.1 36 5.8 42.4
19:35 1014 29.94 843 24.89 21.2 70.1 36 5.8 42.4
19:40 1014 29.94 843 24.89 21.2 70.2 36 5.6 42.1
19:45 1014 29.94 843 24.89 21.2 70.1 36 5.9 42.6
19:50 1014 29.94 843 24.89 21 69.8 38 6.3 43.4
19:55 1014 29.94 843 24.89 20.8 69.5 40 6.8 44.3
20:00 1014 29.94 843 24.89 20.6 69 41 7.1 44.8
20:05 1014 29.94 843 24.89 20.4 68.7 41 6.9 44.5
20:10 1014 29.94 843 24.89 20.3 68.5 42 7.2 44.9
20:15 1014 29.94 843 24.89 20.1 68.1 43 7.4 45.2
20:20 1014 29.94 843 24.89 19.8 67.7 44 7.4 45.4
20:25 1014 29.94 843 24.89 19.7 67.5 43 7.1 44.7
20:30 1014 29.94 843 24.89 19.8 67.6 44 7.3 45.1
20:35 1014 29.94 843 24.89 19.6 67.3 44 7.1 44.8
20:40 1014 29.94 843 24.89 19.5 67.2 44 7 44.5
20:45 1014 29.94 843 24.89 19.4 67 44 7 44.6
20:50 1014 29.94 843 24.89 19.3 66.7 44 7 44.6
20:55 1014 29.94 844 24.92 19.2 66.5 44 6.7 44.1
21:00 1014 29.94 844 24.92 19.2 66.6 44 6.9 44.5
21:05 1014 29.94 844 24.92 19.1 66.4 45 7.1 44.8
21:10 1014 29.94 844 24.92 18.9 66.1 46 7.1 44.7
21:15 1014 29.94 844 24.92 18.9 66.1 46 7.1 44.8
21:20 1015 29.97 844 24.92 18.9 66 46 7 44.7
21:25 1015 29.97 844 24.92 18.8 65.8 46 7 44.6
21:30 1015 29.97 844 24.92 18.7 65.6 47 7.2 45
21:35 1015 29.97 844 24.92 18.6 65.6 46 7 44.7
21:40 1014 29.94 844 24.92 18.6 65.4 46 7 44.6
21:45 1014 29.94 844 24.92 18.4 65 48 7.3 45.1
21:50 1014 29.94 844 24.92 18.1 64.5 48 7 44.5
21:55 1015 29.97 844 24.92 18.1 64.5 48 7.1 44.8
22:00 1014 29.94 844 24.92 18 64.5 49 7.2 44.9
22:05 1015 29.97 844 24.92 17.9 64.3 49 7.3 45.1
22:10 1015 29.97 844 24.92 17.7 63.9 52 7.7 45.9
22:15 1015 29.97 844 24.92 17 62.6 56 8.3 46.9
22:20 1015 29.97 844 24.92 16.5 61.7 55 7.5 45.4
22:25 1015 29.97 844 24.92 16.4 61.4 55 7.5 45.5
22:30 1015 29.97 844 24.92 16.2 61.1 53 6.8 44.3
22:35 1015 29.97 844 24.92 16.3 61.3 53 6.9 44.4
22:40 1015 29.97 844 24.92 16.4 61.5 52 6.6 43.8
22:45 1015 29.97 844 24.92 16.9 62.4 50 6.6 43.9
22:50 1015 29.97 844 24.92 17.2 62.9 51 7 44.5
22:55 1015 29.97 844 24.92 17.4 63.3 50 7.1 44.8
23:00 1015 29.97 844 24.92 17.4 63.3 51 7.3 45.1
23:05 1015 29.97 844 24.92 17.4 63.2 51 7.4 45.3
23:10 1015 29.97 844 24.92 17.1 62.8 52 7.3 45.2
23:15 1015 29.97 844 24.92 17.1 62.7 54 7.9 46.2
23:20 1015 29.97 844 24.92 17.3 63.2 51 7.2 45
23:25 1015 29.97 844 24.92 17.4 63.3 51 7.3 45.1
23:30 1015 29.97 844 24.92 17.2 63 52 7.4 45.3
23:35 1015 29.97 844 24.92 17.1 62.9 53 7.6 45.7
23:40 1015 29.97 844 24.92 17.1 62.8 53 7.7 45.8
23:45 1015 29.97 844 24.92 17.1 62.8 53 7.5 45.4
23:50 1015 29.97 844 24.92 17.1 62.8 53 7.6 45.7
23:55 1015 29.97 844 24.92 17 62.6 54 7.6 45.8
24:00 1015 29.97 844 24.92 17.2 62.9 52 7.2 45